createdAt,value
2018-02-17T00:00:17.875Z,92719.83
2018-02-17T00:01:06.655Z,92715.37
2018-02-17T00:01:55.437Z,92718.07
2018-02-17T00:02:44.824Z,92721.17
2018-02-17T00:03:33.900Z,92722.85
2018-02-17T00:04:22.999Z,92721.80
2018-02-17T00:05:12.073Z,92721.75
2018-02-17T00:06:01.178Z,92728.27
2018-02-17T00:06:50.260Z,92727.56
2018-02-17T00:07:39.407Z,92728.89
2018-02-17T00:08:29.214Z,92734.73
2018-02-17T00:09:18.295Z,92731.27
2018-02-17T00:10:07.401Z,92734.02
2018-02-17T00:10:56.502Z,92734.67
2018-02-17T00:11:45.560Z,92735.34
2018-02-17T00:12:34.611Z,92739.46
2018-02-17T00:13:23.678Z,92737.70
2018-02-17T00:14:12.753Z,92740.09
2018-02-17T00:15:01.865Z,92750.35
2018-02-17T00:15:51.000Z,92742.12
2018-02-17T00:16:40.074Z,92745.53
2018-02-17T00:17:29.144Z,92740.72
2018-02-17T00:18:18.213Z,92746.87
2018-02-17T00:19:07.459Z,92740.98
2018-02-17T00:19:56.538Z,92748.52
2018-02-17T00:20:48.131Z,92745.77
2018-02-17T00:21:37.203Z,92748.52
2018-02-17T00:22:26.345Z,92752.27
2018-02-17T00:23:16.297Z,92745.06
2018-02-17T00:24:05.403Z,92745.02
2018-02-17T00:24:54.778Z,92744.67
2018-02-17T00:25:43.855Z,92742.95
2018-02-17T00:26:32.988Z,92741.18
2018-02-17T00:27:22.067Z,92740.48
2018-02-17T00:28:11.140Z,92736.72
2018-02-17T00:29:00.303Z,92737.37
2018-02-17T00:29:49.938Z,92736.33
2018-02-17T00:30:39.011Z,92740.79
2018-02-17T00:31:28.100Z,92738.72
2018-02-17T00:32:17.171Z,92737.30
2018-02-17T00:33:06.293Z,92736.91
2018-02-17T00:33:55.361Z,92731.73
2018-02-17T00:34:44.483Z,92731.08
2018-02-17T00:35:33.784Z,92733.11
2018-02-17T00:36:22.848Z,92734.09
2018-02-17T00:37:11.903Z,92732.02
2018-02-17T00:38:00.976Z,92730.95
2018-02-17T00:38:50.075Z,92726.84
2018-02-17T00:39:39.566Z,92729.89
2018-02-17T00:40:29.097Z,92728.17
2018-02-17T00:41:19.664Z,92731.89
2018-02-17T00:42:09.391Z,92730.88
2018-02-17T00:43:01.426Z,92730.52
2018-02-17T00:43:50.499Z,92734.95
2018-02-17T00:44:39.585Z,92725.31
2018-02-17T00:45:29.099Z,92735.58
2018-02-17T00:46:18.171Z,92731.42
2018-02-17T00:47:07.248Z,92735.84
2018-02-17T00:47:56.348Z,92738.59
2018-02-17T00:48:45.413Z,92739.56
2018-02-17T00:49:34.532Z,92738.20
2018-02-17T00:50:23.594Z,92735.10
2018-02-17T00:51:12.667Z,92739.88
2018-02-17T00:52:01.747Z,92739.17
2018-02-17T00:52:50.881Z,92739.84
2018-02-17T00:53:39.949Z,92738.42
2018-02-17T00:54:29.019Z,92743.25
2018-02-17T00:55:18.081Z,92742.19
2018-02-17T00:56:07.143Z,92742.15
2018-02-17T00:56:56.336Z,92746.58
2018-02-17T00:57:45.410Z,92746.89
2018-02-17T00:58:34.478Z,92746.14
2018-02-17T00:59:23.551Z,92750.56
2018-02-17T01:00:12.627Z,92747.47
2018-02-17T01:01:01.716Z,92743.67
2018-02-17T01:01:50.790Z,92745.70
2018-02-17T01:02:40.172Z,92742.61
2018-02-17T01:03:29.345Z,92740.89
2018-02-17T01:04:18.404Z,92743.23
2018-02-17T01:05:07.465Z,92744.25
2018-02-17T01:05:56.525Z,92737.36
2018-02-17T01:06:45.583Z,92737.36
2018-02-17T01:07:34.703Z,92737.67
2018-02-17T01:08:24.032Z,92741.78
2018-02-17T01:09:13.730Z,92740.06
2018-02-17T01:10:02.827Z,92733.88
2018-02-17T01:10:51.899Z,92733.16
2018-02-17T01:11:41.043Z,92733.83
2018-02-17T01:12:30.132Z,92741.00
2018-02-17T01:13:19.257Z,92732.07
2018-02-17T01:14:08.390Z,92732.38
2018-02-17T01:14:57.477Z,92735.44
2018-02-17T01:15:46.546Z,92733.40
2018-02-17T01:16:35.620Z,92731.98
2018-02-17T01:17:24.743Z,92729.56
2018-02-17T01:18:13.803Z,92738.80
2018-02-17T01:19:02.900Z,92728.85
2018-02-17T01:19:52.095Z,92733.59
2018-02-17T01:20:41.155Z,92740.09
2018-02-17T01:21:30.228Z,92737.70
2018-02-17T01:22:20.414Z,92739.07
2018-02-17T01:23:09.488Z,92738.33
2018-02-17T01:23:58.546Z,92736.25
2018-02-17T01:24:47.751Z,92740.01
2018-02-17T01:25:36.804Z,92740.01
2018-02-17T01:26:25.877Z,92738.24
2018-02-17T01:27:15.440Z,92741.65
2018-02-17T01:28:04.546Z,92740.23
2018-02-17T01:28:53.631Z,92740.94
2018-02-17T01:29:42.684Z,92739.47
2018-02-17T01:30:31.751Z,92741.19
2018-02-17T01:31:20.826Z,92736.38
2018-02-17T01:32:09.906Z,92741.50
2018-02-17T01:32:59.011Z,92740.44
2018-02-17T01:33:48.482Z,92739.38
2018-02-17T01:34:37.559Z,92743.14
2018-02-17T01:35:26.615Z,92742.78
2018-02-17T01:36:15.678Z,92745.48
2018-02-17T01:37:04.750Z,92744.12
2018-02-17T01:37:53.831Z,92741.69
2018-02-17T01:38:42.946Z,92740.62
2018-02-17T01:39:32.031Z,92750.91
2018-02-17T01:40:21.110Z,92738.89
2018-02-17T01:41:10.268Z,92736.11
2018-02-17T01:41:59.352Z,92736.06
2018-02-17T01:42:48.465Z,92737.13
2018-02-17T01:43:37.775Z,92743.27
2018-02-17T01:44:26.858Z,92734.03
2018-02-17T01:45:16.032Z,92741.55
2018-02-17T01:46:05.107Z,92745.27
2018-02-17T01:46:54.198Z,92733.95
2018-02-17T01:47:43.286Z,92735.98
2018-02-17T01:48:32.381Z,92731.48
2018-02-17T01:49:21.489Z,92733.87
2018-02-17T01:50:22.240Z,92731.09
2018-02-17T01:51:11.343Z,92734.84
2018-02-17T01:52:00.420Z,92730.73
2018-02-17T01:52:49.505Z,92738.25
2018-02-17T01:53:38.617Z,92735.11
2018-02-17T01:54:27.743Z,92729.63
2018-02-17T01:55:16.855Z,92730.96
2018-02-17T01:56:05.938Z,92730.61
2018-02-17T01:56:55.242Z,92729.91
2018-02-17T01:57:44.534Z,92727.83
2018-02-17T01:58:33.615Z,92728.49
2018-02-17T01:59:22.689Z,92730.17
2018-02-17T02:00:12.020Z,92735.61
2018-02-17T02:01:01.126Z,92734.24
2018-02-17T02:01:50.218Z,92739.02
2018-02-17T02:02:39.312Z,92734.86
2018-02-17T02:03:28.449Z,92740.70
2018-02-17T02:04:17.840Z,92742.73
2018-02-17T02:05:06.897Z,92745.08
2018-02-17T02:05:56.101Z,92742.69
2018-02-17T02:06:45.394Z,92743.00
2018-02-17T02:07:34.455Z,92746.41
2018-02-17T02:08:23.534Z,92746.05
2018-02-17T02:09:12.602Z,92746.01
2018-02-17T02:10:01.669Z,92747.69
2018-02-17T02:10:50.737Z,92748.00
2018-02-17T02:11:39.854Z,92751.05
2018-02-17T02:12:28.952Z,92750.70
2018-02-17T02:13:18.923Z,92747.95
2018-02-17T02:14:08.065Z,92752.37
2018-02-17T02:14:57.164Z,92755.11
2018-02-17T02:15:46.251Z,92749.95
2018-02-17T02:16:35.331Z,92747.52
2018-02-17T02:17:24.489Z,92754.68
2018-02-17T02:18:13.573Z,92755.03
2018-02-17T02:19:02.660Z,92752.60
2018-02-17T02:19:51.737Z,92751.90
2018-02-17T02:20:40.793Z,92747.75
2018-02-17T02:21:29.851Z,92755.30
2018-02-17T02:22:21.465Z,92749.07
2018-02-17T02:23:10.838Z,92751.11
2018-02-17T02:23:59.913Z,92750.75
2018-02-17T02:24:49.120Z,92751.73
2018-02-17T02:25:38.191Z,92748.33
2018-02-17T02:26:27.563Z,92749.30
2018-02-17T02:27:16.631Z,92745.55
2018-02-17T02:28:05.698Z,92746.20
2018-02-17T02:28:54.779Z,92743.78
2018-02-17T02:29:43.970Z,92747.89
2018-02-17T02:30:33.080Z,92744.09
2018-02-17T02:31:22.153Z,92746.78
2018-02-17T02:32:11.221Z,92746.08
2018-02-17T02:33:00.283Z,92753.98
2018-02-17T02:33:49.370Z,92747.09
2018-02-17T02:34:38.434Z,92750.50
2018-02-17T02:35:27.651Z,92744.97
2018-02-17T02:36:16.738Z,92745.68
2018-02-17T02:37:05.812Z,92744.63
2018-02-17T02:37:54.868Z,92746.30
2018-02-17T02:38:44.277Z,92748.69
2018-02-17T02:39:33.352Z,92753.81
2018-02-17T02:40:22.446Z,92748.30
2018-02-17T02:41:11.501Z,92750.68
2018-02-17T02:42:03.808Z,92745.16
2018-02-17T02:42:52.885Z,92743.13
2018-02-17T02:43:41.973Z,92736.63
2018-02-17T02:44:31.401Z,92741.01
2018-02-17T02:45:20.492Z,92749.93
2018-02-17T02:46:09.554Z,92748.52
2018-02-17T02:46:58.630Z,92745.42
2018-02-17T02:47:47.706Z,92752.58
2018-02-17T02:48:36.773Z,92752.58
2018-02-17T02:49:25.872Z,92751.17
2018-02-17T02:50:14.989Z,92749.09
2018-02-17T02:52:27.701Z,92748.03
2018-02-17T02:53:17.095Z,92751.08
2018-02-17T02:54:06.158Z,92751.75
2018-02-17T02:54:55.207Z,92747.64
2018-02-17T02:55:44.292Z,92755.15
2018-02-17T02:56:33.373Z,92753.73
2018-02-17T02:57:22.766Z,92753.37
2018-02-17T02:58:12.282Z,92747.86
2018-02-17T02:59:01.354Z,92755.38
2018-02-17T02:59:50.561Z,92750.25
2018-02-17T03:00:39.629Z,92749.50
2018-02-17T03:01:28.698Z,92754.31
2018-02-17T03:02:17.806Z,92752.90
2018-02-17T03:03:06.885Z,92752.86
2018-02-17T03:03:55.997Z,92749.77
2018-02-17T03:04:45.085Z,92749.41
2018-02-17T03:05:34.152Z,92749.06
2018-02-17T03:06:23.272Z,92749.72
2018-02-17T03:07:12.348Z,92755.50
2018-02-17T03:08:01.492Z,92751.40
2018-02-17T03:08:50.744Z,92753.73
2018-02-17T03:09:39.893Z,92754.09
2018-02-17T03:10:28.943Z,92751.00
2018-02-17T03:11:17.997Z,92747.91
2018-02-17T03:12:07.052Z,92751.00
2018-02-17T03:12:56.119Z,92747.56
2018-02-17T03:13:45.195Z,92745.84
2018-02-17T03:14:34.258Z,92743.45
2018-02-17T03:15:23.870Z,92744.52
2018-02-17T03:16:12.953Z,92742.08
2018-02-17T03:17:02.061Z,92733.20
2018-02-17T03:17:51.124Z,92734.58
2018-02-17T03:18:40.221Z,92740.41
2018-02-17T03:19:29.649Z,92733.25
2018-02-17T03:20:18.740Z,92735.28
2018-02-17T03:21:07.820Z,92737.40
2018-02-17T03:21:56.870Z,92737.05
2018-02-17T03:22:45.940Z,92739.47
2018-02-17T03:23:35.023Z,92743.63
2018-02-17T03:24:24.094Z,92738.15
2018-02-17T03:25:13.187Z,92741.95
2018-02-17T03:26:02.251Z,92740.27
2018-02-17T03:26:51.321Z,92741.28
2018-02-17T03:27:40.463Z,92739.95
2018-02-17T03:28:29.585Z,92746.14
2018-02-17T03:29:18.672Z,92748.56
2018-02-17T03:30:07.769Z,92744.45
2018-02-17T03:30:56.835Z,92746.89
2018-02-17T03:31:45.928Z,92747.95
2018-02-17T03:32:35.028Z,92753.42
2018-02-17T03:33:24.185Z,92746.27
2018-02-17T03:34:13.272Z,92749.36
2018-02-17T03:35:02.348Z,92753.82
2018-02-17T03:35:51.441Z,92749.05
2018-02-17T03:36:40.510Z,92754.22
2018-02-17T03:37:29.568Z,92751.48
2018-02-17T03:38:18.630Z,92750.86
2018-02-17T03:39:08.111Z,92752.23
2018-02-17T03:39:57.196Z,92755.01
2018-02-17T03:40:46.263Z,92751.61
2018-02-17T03:41:38.383Z,92753.33
2018-02-17T03:42:27.451Z,92753.37
2018-02-17T03:43:16.517Z,92743.13
2018-02-17T03:44:05.625Z,92744.19
2018-02-17T03:44:55.229Z,92746.92
2018-02-17T03:45:44.314Z,92744.58
2018-02-17T03:46:33.448Z,92742.90
2018-02-17T03:47:22.504Z,92744.97
2018-02-17T03:48:11.573Z,92738.13
2018-02-17T03:49:00.670Z,92744.00
2018-02-17T03:49:49.773Z,92747.80
2018-02-17T03:50:38.979Z,92745.77
2018-02-17T03:51:28.058Z,92743.73
2018-02-17T03:52:17.170Z,92747.48
2018-02-17T03:53:06.229Z,92745.14
2018-02-17T03:53:55.314Z,92747.92
2018-02-17T03:54:44.415Z,92750.00
2018-02-17T03:55:33.499Z,92748.64
2018-02-17T03:56:22.573Z,92751.06
2018-02-17T03:57:11.674Z,92754.86
2018-02-17T03:58:01.077Z,92754.86
2018-02-17T03:58:50.137Z,92757.60
2018-02-17T03:59:39.212Z,92750.44
2018-02-17T04:00:28.305Z,92751.85
2018-02-17T04:01:17.407Z,92756.31
2018-02-17T04:02:06.560Z,92756.00
2018-02-17T04:02:55.695Z,92751.23
2018-02-17T04:06:32.012Z,92741.42
2018-02-17T04:07:21.087Z,92745.53
2018-02-17T04:08:10.185Z,92750.34
2018-02-17T04:08:59.279Z,92746.94
2018-02-17T04:09:48.359Z,92748.66
2018-02-17T04:10:37.499Z,92745.22
2018-02-17T04:11:26.634Z,92747.69
2018-02-17T04:12:15.721Z,92742.56
2018-02-17T04:13:04.797Z,92747.42
2018-02-17T04:13:53.871Z,92747.42
2018-02-17T04:14:42.948Z,92748.48
2018-02-17T04:15:32.029Z,92739.91
2018-02-17T04:16:21.138Z,92743.35
2018-02-17T04:17:10.196Z,92736.86
2018-02-17T04:17:59.286Z,92741.01
2018-02-17T04:18:48.357Z,92736.59
2018-02-17T04:19:37.420Z,92733.19
2018-02-17T04:20:26.490Z,92731.14
2018-02-17T04:21:15.613Z,92729.11
2018-02-17T04:22:04.691Z,92726.06
2018-02-17T04:22:53.886Z,92725.05
2018-02-17T04:23:42.941Z,92728.84
2018-02-17T04:24:32.004Z,92731.59
2018-02-17T04:25:21.074Z,92727.16
2018-02-17T04:26:10.399Z,92725.83
2018-02-17T04:26:59.463Z,92725.52
2018-02-17T04:27:48.544Z,92726.58
2018-02-17T04:28:37.608Z,92723.84
2018-02-17T04:29:26.960Z,92722.16
2018-02-17T04:30:16.025Z,92726.98
2018-02-17T04:31:05.148Z,92727.72
2018-02-17T04:31:54.225Z,92735.98
2018-02-17T04:32:43.283Z,92730.55
2018-02-17T04:33:32.476Z,92729.53
2018-02-17T04:34:21.563Z,92729.17
2018-02-17T04:35:10.630Z,92732.63
2018-02-17T04:35:59.707Z,92729.57
2018-02-17T04:36:48.801Z,92732.35
2018-02-17T04:37:38.137Z,92726.87
2018-02-17T04:38:27.256Z,92728.23
2018-02-17T04:39:16.682Z,92730.67
2018-02-17T04:40:22.528Z,92725.55
2018-02-17T04:41:17.065Z,92727.28
2018-02-17T04:43:32.870Z,92724.89
2018-02-17T04:45:57.343Z,92733.16
2018-02-17T04:46:58.277Z,92729.78
2018-02-17T04:47:52.838Z,92727.05
2018-02-17T04:48:44.006Z,92730.14
2018-02-17T04:49:38.725Z,92730.19
2018-02-17T04:50:40.674Z,92735.31
2018-02-17T04:51:46.504Z,92737.78
2018-02-17T04:52:45.501Z,92738.45
2018-02-17T04:53:40.014Z,92739.16
2018-02-17T04:54:31.079Z,92736.48
2018-02-17T04:55:25.674Z,92734.45
2018-02-17T04:56:28.453Z,92733.11
2018-02-17T04:57:35.083Z,92733.11
2018-02-17T05:00:15.081Z,92735.94
2018-02-17T05:02:33.605Z,92741.45
2018-02-17T05:03:25.658Z,92738.02
2018-02-17T05:04:29.604Z,92743.53
2018-02-17T05:07:02.814Z,92746.67
2018-02-17T05:07:57.261Z,92750.83
2018-02-17T05:08:52.160Z,92753.92
2018-02-17T05:09:41.242Z,92749.14
2018-02-17T05:10:30.500Z,92749.49
2018-02-17T05:11:19.639Z,92752.23
2018-02-17T05:12:08.719Z,92754.98
2018-02-17T05:12:57.810Z,92754.63
2018-02-17T05:13:46.892Z,92762.53
2018-02-17T05:14:37.608Z,92762.58
2018-02-17T05:15:31.884Z,92762.93
2018-02-17T05:16:35.824Z,92759.52
2018-02-17T05:17:30.507Z,92766.06
2018-02-17T05:18:19.613Z,92769.16
2018-02-17T05:19:26.371Z,92764.38
2018-02-17T05:20:35.211Z,92763.72
2018-02-17T05:21:24.358Z,92766.11
2018-02-17T05:22:18.021Z,92764.73
2018-02-17T05:23:10.678Z,92763.05
2018-02-17T05:24:00.166Z,92758.27
2018-02-17T05:24:53.940Z,92754.87
2018-02-17T05:25:53.879Z,92756.59
2018-02-17T05:26:44.637Z,92750.76
2018-02-17T05:27:39.249Z,92747.34
2018-02-17T05:28:28.426Z,92742.22
2018-02-17T05:29:20.907Z,92746.69
2018-02-17T05:31:29.260Z,92741.55
2018-02-17T05:32:21.089Z,92740.22
2018-02-17T05:33:15.770Z,92734.73
2018-02-17T05:34:22.744Z,92741.63
2018-02-17T05:35:26.509Z,92745.08
2018-02-17T05:37:39.982Z,92740.93
2018-02-17T05:38:29.543Z,92738.89
2018-02-17T05:39:18.612Z,92738.58
2018-02-17T05:40:23.515Z,92740.30
2018-02-17T05:41:23.557Z,92732.78
2018-02-17T05:42:13.155Z,92740.30
2018-02-17T05:43:03.253Z,92738.97
2018-02-17T05:43:52.566Z,92745.87
2018-02-17T05:44:47.225Z,92744.84
2018-02-17T05:45:40.917Z,92744.84
2018-02-17T05:46:33.943Z,92745.20
2018-02-17T05:47:25.983Z,92746.61
2018-02-17T05:48:15.128Z,92742.15
2018-02-17T05:49:14.198Z,92744.89
2018-02-17T05:50:03.332Z,92750.77
2018-02-17T05:50:53.589Z,92748.38
2018-02-17T05:51:43.036Z,92762.80
2018-02-17T05:52:32.348Z,92762.13
2018-02-17T05:53:21.414Z,92761.46
2018-02-17T05:54:10.889Z,92753.59
2018-02-17T05:55:01.478Z,92757.39
2018-02-17T05:55:50.549Z,92753.98
2018-02-17T05:56:39.620Z,92755.00
2018-02-17T05:57:28.698Z,92764.95
2018-02-17T05:58:17.792Z,92760.48
2018-02-17T05:59:06.875Z,92765.66
2018-02-17T05:59:55.971Z,92776.00
2018-02-17T06:00:45.051Z,92770.83
2018-02-17T06:01:34.115Z,92774.94
2018-02-17T06:02:23.187Z,92770.52
2018-02-17T06:03:12.309Z,92771.18
2018-02-17T06:04:01.738Z,92775.69
2018-02-17T06:04:51.179Z,92770.20
2018-02-17T06:05:40.654Z,92774.31
2018-02-17T06:06:29.738Z,92779.48
2018-02-17T06:07:18.833Z,92776.78
2018-02-17T06:08:07.997Z,92780.86
2018-02-17T06:08:57.143Z,92777.09
2018-02-17T06:09:46.445Z,92774.05
2018-02-17T06:10:35.607Z,92780.23
2018-02-17T06:11:24.874Z,92782.31
2018-02-17T06:12:13.928Z,92782.66
2018-02-17T06:13:03.001Z,92780.94
2018-02-17T06:13:52.055Z,92780.67
2018-02-17T06:14:41.178Z,92784.82
2018-02-17T06:15:30.508Z,92777.30
2018-02-17T06:16:19.924Z,92783.48
2018-02-17T06:17:09.029Z,92781.77
2018-02-17T06:17:58.097Z,92783.84
2018-02-17T06:18:47.488Z,92785.25
2018-02-17T06:19:36.583Z,92784.94
2018-02-17T06:20:26.010Z,92784.23
2018-02-17T06:21:15.079Z,92785.92
2018-02-17T06:22:04.153Z,92788.31
2018-02-17T06:22:53.215Z,92786.94
2018-02-17T06:23:42.296Z,92789.37
2018-02-17T06:24:31.366Z,92790.43
2018-02-17T06:25:21.235Z,92791.80
2018-02-17T06:26:10.316Z,92786.98
2018-02-17T06:26:59.399Z,92797.28
2018-02-17T06:27:48.645Z,92795.91
2018-02-17T06:28:37.717Z,92794.94
2018-02-17T06:29:26.771Z,92786.00
2018-02-17T06:30:15.829Z,92789.41
2018-02-17T06:31:05.017Z,92782.91
2018-02-17T06:31:54.086Z,92775.42
2018-02-17T06:32:43.265Z,92773.00
2018-02-17T06:33:32.338Z,92776.80
2018-02-17T06:34:21.426Z,92770.30
2018-02-17T06:35:10.486Z,92773.74
2018-02-17T06:35:59.581Z,92778.56
2018-02-17T06:36:48.765Z,92777.19
2018-02-17T06:37:37.841Z,92782.01
2018-02-17T06:38:26.979Z,92780.28
2018-02-17T06:39:16.049Z,92779.27
2018-02-17T06:40:05.170Z,92777.58
2018-02-17T06:40:54.722Z,92773.82
2018-02-17T06:41:44.347Z,92776.60
2018-02-17T06:42:33.460Z,92771.12
2018-02-17T06:43:22.529Z,92772.84
2018-02-17T06:44:11.620Z,92779.03
2018-02-17T06:45:00.680Z,92775.27
2018-02-17T06:45:49.741Z,92783.85
2018-02-17T06:46:38.946Z,92778.72
2018-02-17T06:47:28.403Z,92783.89
2018-02-17T06:48:17.501Z,92785.27
2018-02-17T06:49:06.617Z,92781.86
2018-02-17T06:49:55.708Z,92780.13
2018-02-17T06:50:44.811Z,92782.87
2018-02-17T06:51:33.884Z,92779.11
2018-02-17T06:52:23.318Z,92777.12
2018-02-17T06:53:12.397Z,92780.52
2018-02-17T06:54:01.632Z,92778.09
2018-02-17T06:54:50.758Z,92777.08
2018-02-17T06:55:40.503Z,92770.92
2018-02-17T06:56:29.960Z,92768.22
2018-02-17T06:57:19.033Z,92771.36
2018-02-17T06:58:08.090Z,92765.20
2018-02-17T06:58:57.782Z,92763.14
2018-02-17T06:59:46.901Z,92765.22
2018-02-17T07:00:36.064Z,92766.59
2018-02-17T07:01:25.140Z,92763.17
2018-02-17T07:02:14.533Z,92759.06
2018-02-17T07:03:03.977Z,92760.13
2018-02-17T07:03:53.233Z,92758.44
2018-02-17T07:04:42.590Z,92758.13
2018-02-17T07:05:31.715Z,92759.84
2018-02-17T07:06:21.462Z,92747.19
2018-02-17T07:07:10.532Z,92752.72
2018-02-17T07:07:59.592Z,92754.83
2018-02-17T07:08:49.173Z,92754.16
2018-02-17T07:09:38.283Z,92749.03
2018-02-17T07:10:27.387Z,92749.07
2018-02-17T07:11:17.611Z,92746.33
2018-02-17T07:12:06.785Z,92752.87
2018-02-17T07:12:55.838Z,92749.11
2018-02-17T07:13:44.909Z,92752.20
2018-02-17T07:14:33.991Z,92752.87
2018-02-17T07:15:23.040Z,92756.67
2018-02-17T07:16:12.100Z,92752.87
2018-02-17T07:17:01.548Z,92751.85
2018-02-17T07:17:50.635Z,92759.73
2018-02-17T07:18:39.738Z,92760.78
2018-02-17T07:19:29.043Z,92763.17
2018-02-17T07:20:19.995Z,92764.55
2018-02-17T07:21:09.320Z,92769.64
2018-02-17T07:21:59.410Z,92766.83
2018-02-17T07:22:49.418Z,92767.09
2018-02-17T07:23:38.993Z,92771.45
2018-02-17T07:24:28.113Z,92769.67
2018-02-17T07:25:17.172Z,92772.33
2018-02-17T07:26:06.238Z,92766.11
2018-02-17T07:26:55.329Z,92764.34
2018-02-17T07:27:44.408Z,92763.98
2018-02-17T07:28:33.530Z,92760.85
2018-02-17T07:29:22.632Z,92758.77
2018-02-17T07:30:11.997Z,92762.58
2018-02-17T07:31:01.082Z,92761.91
2018-02-17T07:31:50.161Z,92763.98
2018-02-17T07:32:39.242Z,92761.95
2018-02-17T07:33:28.311Z,92765.75
2018-02-17T07:34:17.382Z,92761.28
2018-02-17T07:35:06.489Z,92761.28
2018-02-17T07:35:56.122Z,92763.72
2018-02-17T07:36:45.181Z,92765.79
2018-02-17T07:37:34.260Z,92765.48
2018-02-17T07:38:23.709Z,92766.53
2018-02-17T07:39:12.808Z,92762.11
2018-02-17T07:40:01.927Z,92759.72
2018-02-17T07:40:51.029Z,92766.66
2018-02-17T07:41:40.097Z,92761.18
2018-02-17T07:42:29.155Z,92758.48
2018-02-17T07:43:18.218Z,92748.88
2018-02-17T07:44:07.292Z,92757.81
2018-02-17T07:44:56.347Z,92755.77
2018-02-17T07:45:46.472Z,92752.02
2018-02-17T07:46:35.533Z,92752.05
2018-02-17T07:47:24.606Z,92749.34
2018-02-17T07:48:13.672Z,92750.36
2018-02-17T07:49:02.740Z,92745.58
2018-02-17T07:49:51.823Z,92750.41
2018-02-17T07:50:41.277Z,92751.81
2018-02-17T07:51:30.440Z,92747.03
2018-02-17T07:52:19.578Z,92745.70
2018-02-17T07:53:08.675Z,92747.39
2018-02-17T07:53:57.733Z,92750.88
2018-02-17T07:54:46.790Z,92748.12
2018-02-17T07:55:35.971Z,92748.17
2018-02-17T07:56:25.035Z,92748.88
2018-02-17T07:57:14.556Z,92742.33
2018-02-17T07:58:03.603Z,92745.46
2018-02-17T07:58:52.777Z,92743.42
2018-02-17T07:59:41.787Z,92745.15
2018-02-17T08:00:30.840Z,92745.85
2018-02-17T08:01:19.893Z,92742.09
2018-02-17T08:02:08.965Z,92743.50
2018-02-17T08:02:58.507Z,92742.80
2018-02-17T08:03:47.565Z,92739.73
2018-02-17T08:04:36.697Z,92741.46
2018-02-17T08:05:25.759Z,92742.17
2018-02-17T08:06:14.845Z,92740.13
2018-02-17T08:07:03.915Z,92743.23
2018-02-17T08:07:52.980Z,92737.42
2018-02-17T08:08:42.157Z,92737.47
2018-02-17T08:09:31.290Z,92740.91
2018-02-17T08:10:20.365Z,92742.32
2018-02-17T08:11:09.438Z,92737.89
2018-02-17T08:11:58.503Z,92736.84
2018-02-17T08:12:47.599Z,92740.64
2018-02-17T08:13:36.672Z,92734.83
2018-02-17T08:14:25.788Z,92734.88
2018-02-17T08:15:14.849Z,92734.88
2018-02-17T08:16:03.911Z,92734.91
2018-02-17T08:16:53.143Z,92734.24
2018-02-17T08:17:42.194Z,92732.52
2018-02-17T08:18:31.275Z,92728.50
2018-02-17T08:19:20.395Z,92724.08
2018-02-17T08:20:09.717Z,92734.38
2018-02-17T08:20:58.771Z,92728.23
2018-02-17T08:21:47.850Z,92729.95
2018-02-17T08:22:36.931Z,92723.45
2018-02-17T08:23:25.992Z,92722.46
2018-02-17T08:24:15.051Z,92727.95
2018-02-17T08:25:04.117Z,92724.89
2018-02-17T08:25:53.546Z,92723.91
2018-02-17T08:27:30.595Z,92724.97
2018-02-17T08:28:19.648Z,92726.34
2018-02-17T08:29:08.733Z,92721.55
2018-02-17T08:29:57.796Z,92726.77
2018-02-17T08:30:46.880Z,92730.92
2018-02-17T08:31:35.984Z,92731.27
2018-02-17T08:32:25.050Z,92729.23
2018-02-17T08:33:14.135Z,92730.96
2018-02-17T08:34:03.212Z,92719.66
2018-02-17T08:34:52.275Z,92720.05
2018-02-17T08:35:41.358Z,92715.27
2018-02-17T08:36:30.455Z,92713.55
2018-02-17T08:37:19.570Z,92717.00
2018-02-17T08:38:08.638Z,92717.39
2018-02-17T08:38:57.696Z,92710.52
2018-02-17T08:39:47.253Z,92716.72
2018-02-17T08:40:36.327Z,92712.28
2018-02-17T08:41:25.398Z,92713.69
2018-02-17T08:42:14.751Z,92707.89
2018-02-17T08:43:03.813Z,92706.52
2018-02-17T08:43:52.887Z,92706.55
2018-02-17T08:44:41.948Z,92697.65
2018-02-17T08:45:31.010Z,92704.20
2018-02-17T08:46:20.079Z,92706.98
2018-02-17T08:47:09.131Z,92704.59
2018-02-17T08:47:58.263Z,92702.86
2018-02-17T08:48:47.329Z,92701.52
2018-02-17T08:49:36.415Z,92696.39
2018-02-17T08:50:25.628Z,92695.41
2018-02-17T08:51:14.707Z,92695.80
2018-02-17T08:52:03.821Z,92699.59
2018-02-17T08:52:52.898Z,92696.88
2018-02-17T08:53:42.020Z,92694.49
2018-02-17T08:54:31.081Z,92697.27
2018-02-17T08:55:20.150Z,92692.17
2018-02-17T08:56:09.209Z,92692.52
2018-02-17T08:56:58.606Z,92684.64
2018-02-17T08:57:47.671Z,92686.05
2018-02-17T08:58:36.762Z,92683.66
2018-02-17T08:59:25.841Z,92684.02
2018-02-17T09:00:14.920Z,92682.68
2018-02-17T09:01:04.014Z,92683.42
2018-02-17T09:01:53.086Z,92681.41
2018-02-17T09:02:42.181Z,92681.77
2018-02-17T09:03:31.237Z,92680.11
2018-02-17T09:04:20.283Z,92680.15
2018-02-17T09:05:09.360Z,92681.55
2018-02-17T09:05:58.429Z,92674.06
2018-02-17T09:06:47.495Z,92675.12
2018-02-17T09:07:36.607Z,92673.08
2018-02-17T09:08:25.735Z,92678.25
2018-02-17T09:09:14.799Z,92671.42
2018-02-17T09:10:03.909Z,92676.24
2018-02-17T09:10:52.979Z,92671.45
2018-02-17T09:11:42.064Z,92670.78
2018-02-17T09:12:31.136Z,92670.12
2018-02-17T09:13:20.197Z,92667.72
2018-02-17T09:14:09.588Z,92668.39
2018-02-17T09:14:58.710Z,92668.08
2018-02-17T09:15:47.790Z,92669.48
2018-02-17T09:16:36.852Z,92667.44
2018-02-17T09:17:25.942Z,92671.91
2018-02-17T09:18:15.053Z,92673.67
2018-02-17T09:19:04.122Z,92670.61
2018-02-17T09:19:53.174Z,92666.48
2018-02-17T09:20:42.515Z,92667.55
2018-02-17T09:21:31.590Z,92663.78
2018-02-17T09:22:20.694Z,92660.02
2018-02-17T09:23:09.744Z,92662.44
2018-02-17T09:23:58.793Z,92666.24
2018-02-17T09:24:47.856Z,92667.61
2018-02-17T09:25:36.930Z,92667.30
2018-02-17T09:26:27.024Z,92664.91
2018-02-17T09:27:16.291Z,92665.30
2018-02-17T09:28:05.348Z,92669.09
2018-02-17T09:28:54.425Z,92670.15
2018-02-17T09:29:43.500Z,92668.81
2018-02-17T09:30:32.577Z,92666.42
2018-02-17T09:31:21.632Z,92668.17
2018-02-17T09:32:10.724Z,92666.13
2018-02-17T09:32:59.793Z,92662.72
2018-02-17T09:33:48.903Z,92665.88
2018-02-17T09:34:37.980Z,92664.89
2018-02-17T09:35:27.057Z,92662.19
2018-02-17T09:36:16.150Z,92664.30
2018-02-17T09:37:05.226Z,92659.19
2018-02-17T09:37:54.569Z,92660.24
2018-02-17T09:38:43.654Z,92656.83
2018-02-17T09:39:32.722Z,92660.66
2018-02-17T09:40:21.841Z,92654.89
2018-02-17T09:41:10.892Z,92660.09
2018-02-17T09:42:00.016Z,92656.00
2018-02-17T09:42:49.076Z,92654.00
2018-02-17T09:43:38.421Z,92653.67
2018-02-17T09:44:27.830Z,92648.92
2018-02-17T09:45:16.884Z,92647.92
2018-02-17T09:46:06.060Z,92647.26
2018-02-17T09:46:55.139Z,92650.01
2018-02-17T09:47:44.222Z,92648.66
2018-02-17T09:48:33.286Z,92646.66
2018-02-17T09:49:22.351Z,92643.59
2018-02-17T09:50:11.404Z,92641.23
2018-02-17T09:51:00.515Z,92635.45
2018-02-17T09:51:49.569Z,92637.87
2018-02-17T19:19:52.318Z,92500.61
2018-02-17T19:20:43.125Z,92495.17
2018-02-17T19:21:34.283Z,92498.97
2018-02-17T19:22:25.463Z,92497.98
2018-02-17T19:23:16.271Z,92498.39
2018-02-17T19:24:07.202Z,92492.96
2018-02-17T19:24:58.201Z,92494.04
2018-02-17T19:25:49.463Z,92489.28
2018-02-17T19:26:40.283Z,92491.73